createdAt,value
2022-09-30T00:01:56.226Z,11.40
2022-09-30T00:04:30.191Z,11.40
2022-09-30T00:06:57.472Z,11.40
2022-09-30T00:09:24.829Z,11.30
2022-09-30T00:11:54.658Z,11.20
2022-09-30T00:14:23.495Z,11.20
2022-09-30T00:16:53.368Z,11.20
2022-09-30T00:19:20.765Z,11.10
2022-09-30T00:21:48.035Z,11.10
2022-09-30T00:24:17.729Z,11.10
2022-09-30T00:26:45.382Z,11.20
2022-09-30T00:29:15.078Z,11.20
2022-09-30T00:31:44.996Z,11.20
2022-09-30T00:34:12.300Z,11.20
2022-09-30T00:36:45.360Z,11.20
2022-09-30T00:39:18.713Z,11.20
2022-09-30T00:41:49.255Z,11.20
2022-09-30T00:44:46.140Z,11.20
2022-09-30T00:47:43.416Z,11.10
2022-09-30T00:50:13.351Z,11.00
2022-09-30T00:52:42.930Z,11.00
2022-09-30T00:55:28.186Z,10.90
2022-09-30T00:57:56.769Z,10.90
2022-09-30T01:00:24.241Z,10.80
2022-09-30T01:02:56.590Z,10.70
2022-09-30T01:05:26.603Z,10.70
2022-09-30T01:07:57.964Z,10.60
2022-09-30T01:10:25.159Z,10.70
2022-09-30T01:12:52.810Z,10.70
2022-09-30T01:15:23.735Z,10.60
2022-09-30T01:18:12.688Z,10.80
2022-09-30T01:21:05.756Z,10.80
2022-09-30T01:23:58.993Z,10.80
2022-09-30T01:27:07.920Z,10.80
2022-09-30T01:30:06.077Z,10.80
2022-09-30T01:32:45.219Z,10.90
2022-09-30T01:35:50.203Z,10.90
2022-09-30T01:38:40.724Z,10.90
2022-09-30T01:41:30.992Z,10.90
2022-09-30T01:44:04.303Z,10.90
2022-09-30T01:46:44.145Z,10.90
2022-09-30T01:49:46.628Z,10.90
2022-09-30T01:52:29.063Z,10.80
2022-09-30T01:55:16.609Z,10.80
2022-09-30T01:57:55.192Z,10.70
2022-09-30T02:00:22.816Z,10.70
2022-09-30T02:03:06.488Z,10.70
2022-09-30T02:06:02.240Z,10.60
2022-09-30T02:08:41.411Z,10.60
2022-09-30T02:11:16.068Z,10.60
2022-09-30T02:14:04.550Z,10.60
2022-09-30T02:16:52.769Z,10.60
2022-09-30T02:19:23.140Z,10.60
2022-09-30T02:21:59.964Z,10.60
2022-09-30T02:24:32.129Z,10.50
2022-09-30T02:27:02.999Z,10.50
2022-09-30T02:29:39.712Z,10.50
2022-09-30T02:32:24.498Z,10.50
2022-09-30T02:34:57.315Z,10.50
2022-09-30T02:37:37.733Z,10.50
2022-09-30T02:40:23.166Z,10.40
2022-09-30T02:42:53.116Z,10.40
2022-09-30T02:45:23.146Z,10.40
2022-09-30T02:48:23.518Z,10.40
2022-09-30T02:50:58.634Z,10.50
2022-09-30T02:53:29.008Z,10.50
2022-09-30T02:56:19.951Z,10.50
2022-09-30T02:58:47.903Z,10.40
2022-09-30T03:01:17.531Z,10.50
2022-09-30T03:03:55.535Z,10.50
2022-09-30T03:06:23.699Z,10.40
2022-09-30T03:08:53.034Z,10.40
2022-09-30T03:11:24.174Z,10.40
2022-09-30T03:14:10.793Z,10.40
2022-09-30T03:16:49.442Z,10.40
2022-09-30T03:19:48.976Z,10.30
2022-09-30T03:22:34.465Z,10.30
2022-09-30T03:25:28.378Z,10.30
2022-09-30T03:28:33.048Z,10.20
2022-09-30T03:31:20.411Z,10.20
2022-09-30T03:34:13.356Z,10.30
2022-09-30T03:36:55.059Z,10.30
2022-09-30T03:39:46.548Z,10.20
2022-09-30T03:42:29.133Z,10.30
2022-09-30T03:45:09.866Z,10.20
2022-09-30T03:47:44.495Z,10.20
2022-09-30T03:50:16.041Z,10.20
2022-09-30T03:52:43.577Z,10.20
2022-09-30T03:55:13.318Z,10.20
2022-09-30T03:57:40.720Z,10.20
2022-09-30T04:00:08.644Z,10.20
2022-09-30T04:02:37.680Z,10.10
2022-09-30T04:05:05.867Z,10.10
2022-09-30T04:07:33.632Z,10.20
2022-09-30T04:10:01.442Z,10.20
2022-09-30T04:12:28.665Z,10.30
2022-09-30T04:14:55.927Z,10.20
2022-09-30T04:17:23.561Z,10.20
2022-09-30T04:19:53.155Z,10.20
2022-09-30T04:22:25.518Z,10.20
2022-09-30T04:24:56.161Z,10.20
2022-09-30T04:27:23.824Z,10.20
2022-09-30T04:29:51.511Z,10.10
2022-09-30T04:32:18.958Z,10.10
2022-09-30T04:34:46.573Z,10.10
2022-09-30T04:37:14.109Z,10.00
2022-09-30T04:39:41.744Z,10.00
2022-09-30T04:42:08.963Z,10.00
2022-09-30T04:44:36.118Z,10.00
2022-09-30T04:47:06.730Z,10.00
2022-09-30T04:49:33.934Z,10.10
2022-09-30T04:52:01.366Z,10.10
2022-09-30T04:54:29.032Z,10.00
2022-09-30T04:56:56.209Z,10.00
2022-09-30T04:59:23.968Z,10.00
2022-09-30T05:01:53.522Z,10.00
2022-09-30T05:04:23.331Z,10.00
2022-09-30T05:06:53.646Z,10.00
2022-09-30T05:09:20.957Z,9.90
2022-09-30T05:11:48.243Z,10.00
2022-09-30T05:14:15.460Z,9.90
2022-09-30T05:16:42.746Z,9.90
2022-09-30T05:19:10.012Z,9.80
2022-09-30T05:21:37.240Z,9.80
2022-09-30T05:24:04.581Z,9.90
2022-09-30T05:26:34.924Z,9.90
2022-09-30T05:29:04.760Z,9.90
2022-09-30T05:31:32.061Z,9.90
2022-09-30T05:33:59.371Z,9.90
2022-09-30T05:36:27.466Z,9.90
2022-09-30T05:38:55.038Z,9.80
2022-09-30T05:41:22.737Z,9.80
2022-09-30T05:43:52.486Z,9.80
2022-09-30T05:46:20.682Z,9.80
2022-09-30T05:48:48.488Z,9.80
2022-09-30T05:51:18.250Z,9.90
2022-09-30T05:53:47.920Z,9.80
2022-09-30T05:56:18.468Z,9.80
2022-09-30T05:58:47.219Z,9.80
2022-09-30T06:01:18.380Z,9.80
2022-09-30T06:03:46.787Z,9.80
2022-09-30T06:06:15.618Z,9.80
2022-09-30T06:08:43.809Z,9.80
2022-09-30T06:11:14.595Z,9.90
2022-09-30T06:13:43.002Z,10.00
2022-09-30T06:16:12.548Z,10.00
2022-09-30T06:18:43.632Z,10.00
2022-09-30T06:21:16.929Z,10.10
2022-09-30T06:23:46.836Z,10.10
2022-09-30T06:26:14.932Z,10.10
2022-09-30T06:28:43.072Z,10.10
2022-09-30T06:31:13.450Z,10.10
2022-09-30T06:33:46.705Z,10.20
2022-09-30T06:36:17.234Z,10.40
2022-09-30T06:38:45.580Z,10.60
2022-09-30T06:41:13.829Z,10.80
2022-09-30T06:43:47.799Z,11.10
2022-09-30T06:46:29.839Z,11.50
2022-09-30T06:49:12.128Z,11.90
2022-09-30T06:51:42.803Z,12.40
2022-09-30T06:54:11.607Z,12.80
2022-09-30T06:56:41.872Z,13.30
2022-09-30T06:59:09.092Z,13.70
2022-09-30T07:01:36.346Z,14.20
2022-09-30T07:04:09.490Z,14.60
2022-09-30T07:06:38.936Z,14.70
2022-09-30T07:09:12.893Z,14.80
2022-09-30T07:11:42.351Z,15.00
2022-09-30T07:14:10.423Z,15.20
2022-09-30T07:16:44.668Z,15.10
2022-09-30T07:19:14.729Z,15.20
2022-09-30T07:21:44.087Z,15.60
2022-09-30T07:24:11.797Z,15.60
2022-09-30T07:26:40.161Z,15.40
2022-09-30T07:29:07.369Z,15.20
2022-09-30T07:31:35.909Z,15.10
2022-09-30T07:34:07.262Z,14.90
2022-09-30T07:36:37.809Z,14.80
2022-09-30T07:39:08.293Z,14.60
2022-09-30T07:41:39.315Z,14.40
2022-09-30T07:44:13.226Z,14.20
2022-09-30T07:46:41.750Z,14.10
2022-09-30T07:49:14.495Z,14.00
2022-09-30T07:51:46.324Z,13.90
2022-09-30T07:54:21.076Z,13.90
2022-09-30T07:57:09.299Z,13.80
2022-09-30T07:59:40.269Z,14.40
2022-09-30T08:02:11.649Z,15.70
2022-09-30T08:04:43.499Z,17.30
2022-09-30T08:07:13.049Z,18.80
2022-09-30T08:09:42.840Z,20.10
2022-09-30T08:12:10.266Z,21.10
2022-09-30T08:14:37.556Z,21.80
2022-09-30T08:17:07.268Z,22.60
2022-09-30T08:19:38.207Z,23.60
2022-09-30T08:22:06.415Z,23.70
2022-09-30T08:24:34.280Z,24.50
2022-09-30T08:27:01.511Z,25.30
2022-09-30T08:29:50.404Z,25.30
2022-09-30T08:32:16.933Z,25.60
2022-09-30T08:34:44.242Z,25.60
2022-09-30T08:37:13.605Z,26.30
2022-09-30T08:39:43.490Z,26.50
2022-09-30T08:42:36.094Z,26.80
2022-09-30T08:45:10.535Z,26.70
2022-09-30T08:51:27.759Z,26.80
2022-09-30T08:53:57.710Z,26.40
2022-09-30T08:56:29.277Z,25.90
2022-09-30T08:59:15.514Z,25.70
2022-09-30T09:01:53.557Z,25.70
2022-09-30T09:04:20.857Z,25.70
2022-09-30T09:07:06.537Z,25.50
2022-09-30T09:09:48.124Z,26.30
2022-09-30T09:12:41.085Z,26.00
2022-09-30T09:15:53.300Z,26.00
2022-09-30T09:18:40.497Z,25.70
2022-09-30T09:21:32.669Z,26.00
2022-09-30T09:24:03.549Z,25.60
2022-09-30T09:26:36.510Z,25.80
2022-09-30T09:29:09.407Z,25.80
2022-09-30T09:31:36.840Z,26.20
2022-09-30T09:34:13.573Z,26.70
2022-09-30T09:37:17.932Z,26.80
2022-09-30T09:40:12.087Z,26.50
2022-09-30T09:43:19.468Z,26.10
2022-09-30T09:46:21.772Z,25.90
2022-09-30T09:48:50.081Z,26.20
2022-09-30T09:51:33.168Z,26.00
2022-09-30T09:54:02.351Z,26.00
2022-09-30T09:56:34.698Z,26.10
2022-09-30T09:59:16.896Z,25.90
2022-09-30T10:01:53.528Z,25.60
2022-09-30T10:04:24.347Z,25.60
2022-09-30T10:07:01.890Z,25.60
2022-09-30T10:09:42.839Z,25.60
2022-09-30T10:12:15.749Z,25.40
2022-09-30T10:14:53.971Z,25.80
2022-09-30T10:17:29.655Z,26.00
2022-09-30T10:20:07.345Z,26.50
2022-09-30T10:22:39.269Z,25.70
2022-09-30T10:25:16.162Z,25.50
2022-09-30T10:28:07.030Z,25.60
2022-09-30T10:30:45.208Z,25.80
2022-09-30T10:33:28.877Z,25.80
2022-09-30T10:36:05.669Z,25.90
2022-09-30T10:38:34.764Z,26.30
2022-09-30T10:41:04.330Z,26.00
2022-09-30T10:43:41.281Z,25.90
2022-09-30T10:46:26.930Z,26.00
2022-09-30T10:48:57.142Z,26.20
2022-09-30T10:51:31.118Z,25.80
2022-09-30T10:53:58.336Z,24.70
2022-09-30T10:56:44.393Z,24.50
2022-09-30T10:59:44.153Z,24.70
2022-09-30T11:02:55.126Z,24.80
2022-09-30T11:05:31.058Z,25.30
2022-09-30T11:08:19.778Z,25.60
2022-09-30T11:11:11.792Z,25.50
2022-09-30T11:13:50.428Z,24.80
2022-09-30T11:16:33.146Z,24.80
2022-09-30T11:19:28.522Z,24.90
2022-09-30T11:22:20.311Z,25.10
2022-09-30T11:24:51.921Z,25.40
2022-09-30T11:28:01.780Z,25.30
2022-09-30T11:30:52.755Z,25.20
2022-09-30T11:33:43.046Z,24.50
2022-09-30T11:36:43.182Z,23.70
2022-09-30T11:39:45.558Z,23.00
2022-09-30T11:42:31.790Z,22.80
2022-09-30T11:45:14.898Z,23.20
2022-09-30T11:47:59.364Z,23.30
2022-09-30T11:50:47.954Z,23.50
2022-09-30T11:53:50.784Z,24.20
2022-09-30T11:56:49.316Z,24.40
2022-09-30T11:59:27.653Z,24.10
2022-09-30T12:02:01.201Z,23.60
2022-09-30T12:04:42.598Z,23.00
2022-09-30T12:07:21.661Z,22.60
2022-09-30T12:10:01.251Z,22.40
2022-09-30T12:12:28.742Z,22.00
2022-09-30T12:15:05.736Z,21.80
2022-09-30T12:17:50.594Z,21.90
2022-09-30T12:20:49.227Z,22.00
2022-09-30T12:23:31.804Z,22.50
2022-09-30T12:26:01.342Z,22.20
2022-09-30T12:28:59.976Z,21.90
2022-09-30T12:31:39.152Z,21.70
2022-09-30T12:34:40.425Z,21.60
2022-09-30T12:37:34.195Z,21.40
2022-09-30T12:40:22.502Z,21.90
2022-09-30T12:43:08.632Z,22.60
2022-09-30T12:46:05.781Z,23.30
2022-09-30T12:48:55.942Z,23.50
2022-09-30T12:51:36.019Z,23.30
2022-09-30T12:54:16.194Z,23.30
2022-09-30T12:56:47.039Z,23.50
2022-09-30T12:59:20.017Z,23.80
2022-09-30T13:01:49.842Z,23.70
2022-09-30T13:04:30.706Z,23.20
2022-09-30T13:06:57.831Z,22.70
2022-09-30T13:09:38.875Z,22.70
2022-09-30T13:12:06.178Z,22.90
2022-09-30T13:14:43.261Z,23.40
2022-09-30T13:17:13.888Z,23.50
2022-09-30T13:19:44.514Z,23.70
2022-09-30T13:22:32.339Z,24.00
2022-09-30T13:25:05.987Z,24.00
2022-09-30T13:27:39.092Z,23.80
2022-09-30T13:30:20.786Z,23.40
2022-09-30T13:33:05.665Z,23.30
2022-09-30T13:35:50.904Z,23.20
2022-09-30T13:38:25.407Z,23.30
2022-09-30T13:41:02.288Z,23.30
2022-09-30T13:43:50.900Z,23.30
2022-09-30T13:46:35.522Z,23.00
2022-09-30T13:49:34.101Z,22.90
2022-09-30T13:52:03.248Z,22.80
2022-09-30T13:54:40.285Z,22.60
2022-09-30T13:57:14.728Z,22.60
2022-09-30T14:00:24.085Z,22.50
2022-09-30T14:03:10.585Z,22.40
2022-09-30T14:05:49.251Z,22.20
2022-09-30T14:08:52.409Z,22.10
2022-09-30T14:11:53.137Z,21.90
2022-09-30T14:15:01.232Z,21.70
2022-09-30T14:17:49.857Z,21.60
2022-09-30T14:20:36.638Z,21.70
2022-09-30T14:23:05.222Z,21.80
2022-09-30T14:25:41.919Z,21.90
2022-09-30T14:28:30.583Z,21.80
2022-09-30T14:31:13.143Z,21.80
2022-09-30T14:33:43.214Z,21.70
2022-09-30T14:36:20.294Z,21.70
2022-09-30T14:38:52.867Z,21.70
2022-09-30T14:41:23.010Z,21.60
2022-09-30T14:43:57.338Z,21.40
2022-09-30T14:46:35.959Z,21.30
2022-09-30T14:49:06.958Z,20.90
2022-09-30T14:51:44.659Z,20.60
2022-09-30T14:54:26.586Z,20.60
2022-09-30T14:56:57.048Z,20.70
2022-09-30T14:59:27.171Z,20.70
2022-09-30T15:02:02.862Z,20.70
2022-09-30T15:04:36.390Z,20.60
2022-09-30T15:07:05.547Z,20.60
2022-09-30T15:09:46.140Z,20.60
2022-09-30T15:12:17.934Z,20.60
2022-09-30T15:14:55.885Z,20.70
2022-09-30T15:17:36.661Z,20.60
2022-09-30T15:20:24.636Z,20.60
2022-09-30T15:22:53.289Z,20.50
2022-09-30T15:25:21.967Z,20.50
2022-09-30T15:27:54.464Z,20.20
2022-09-30T15:30:31.256Z,20.10
2022-09-30T15:33:04.485Z,19.90
2022-09-30T15:35:34.454Z,19.80
2022-09-30T15:38:21.379Z,19.70
2022-09-30T15:40:59.212Z,19.60
2022-09-30T15:43:45.275Z,19.60
2022-09-30T15:46:38.832Z,19.60
2022-09-30T15:49:29.097Z,19.60
2022-09-30T15:52:30.658Z,19.50
2022-09-30T15:55:00.902Z,19.10
2022-09-30T15:57:47.465Z,19.10
2022-09-30T16:00:33.070Z,18.90
2022-09-30T16:03:27.019Z,18.80
2022-09-30T16:06:10.935Z,18.70
2022-09-30T16:08:43.404Z,18.60
2022-09-30T16:11:33.084Z,18.60
2022-09-30T16:14:03.072Z,18.40
2022-09-30T16:16:34.100Z,18.30
2022-09-30T16:19:03.811Z,18.20
2022-09-30T16:21:47.241Z,18.10
2022-09-30T16:24:38.169Z,18.00
2022-09-30T16:27:29.169Z,17.90
2022-09-30T16:29:57.874Z,17.90
2022-09-30T16:32:27.962Z,17.90
2022-09-30T16:34:55.616Z,17.80
2022-09-30T16:37:25.853Z,17.80
2022-09-30T16:39:53.645Z,17.80
2022-09-30T16:42:21.294Z,17.70
2022-09-30T16:44:48.524Z,17.80
2022-09-30T16:47:21.083Z,17.80
2022-09-30T16:49:53.198Z,17.80
2022-09-30T16:52:22.508Z,17.80
2022-09-30T16:54:49.737Z,17.70
2022-09-30T16:57:16.990Z,17.70
2022-09-30T16:59:44.274Z,17.70
2022-09-30T17:02:15.003Z,17.70
2022-09-30T17:04:45.532Z,17.70
2022-09-30T17:07:16.030Z,17.70
2022-09-30T17:09:46.676Z,17.70
2022-09-30T17:12:14.871Z,17.60
2022-09-30T17:14:44.593Z,17.50
2022-09-30T17:17:13.577Z,17.60
2022-09-30T17:19:44.107Z,17.60
2022-09-30T17:22:11.800Z,17.50
2022-09-30T17:24:39.016Z,17.50
2022-09-30T17:27:07.801Z,17.50
2022-09-30T17:29:38.859Z,17.40
2022-09-30T17:32:10.990Z,17.40
2022-09-30T17:34:41.323Z,17.40
2022-09-30T17:37:08.714Z,17.30
2022-09-30T17:39:38.218Z,17.20
2022-09-30T17:42:24.870Z,17.20
2022-09-30T17:44:52.307Z,17.10
2022-09-30T17:47:22.526Z,17.10
2022-09-30T17:49:51.944Z,17.00
2022-09-30T17:52:20.039Z,17.00
2022-09-30T17:54:52.189Z,17.10
2022-09-30T17:57:20.857Z,17.00
2022-09-30T17:59:48.568Z,16.90
2022-09-30T18:02:17.751Z,16.90
2022-09-30T18:04:45.293Z,16.80
2022-09-30T18:07:13.717Z,16.90
2022-09-30T18:09:45.547Z,16.80
2022-09-30T18:12:12.761Z,16.70
2022-09-30T18:14:43.863Z,16.70
2022-09-30T18:17:13.462Z,16.60
2022-09-30T18:19:45.363Z,16.60
2022-09-30T18:22:12.684Z,16.60
2022-09-30T18:24:58.199Z,16.60
2022-09-30T18:27:26.095Z,16.60
2022-09-30T18:29:53.946Z,16.60
2022-09-30T18:32:23.421Z,16.50
2022-09-30T18:34:52.959Z,16.40
2022-09-30T18:37:22.300Z,16.40
2022-09-30T18:39:52.122Z,16.40
2022-09-30T18:42:22.062Z,16.40
2022-09-30T18:44:54.912Z,16.40
2022-09-30T18:47:22.240Z,16.40
2022-09-30T18:49:49.903Z,16.40
2022-09-30T18:52:20.197Z,16.50
2022-09-30T18:54:47.501Z,16.50
2022-09-30T18:57:16.120Z,16.40
2022-09-30T18:59:43.799Z,16.30
2022-09-30T19:02:15.142Z,16.30
2022-09-30T19:04:42.442Z,16.30
2022-09-30T19:07:12.414Z,16.30
2022-09-30T19:09:42.070Z,16.30
2022-09-30T19:12:09.288Z,16.20
2022-09-30T19:14:37.921Z,16.20
2022-09-30T19:17:05.952Z,16.10
2022-09-30T19:19:38.973Z,16.10
2022-09-30T19:22:06.288Z,16.10
2022-09-30T19:24:34.478Z,16.10
2022-09-30T19:27:01.997Z,16.10
2022-09-30T19:29:31.636Z,16.10
2022-09-30T19:32:01.091Z,16.10
2022-09-30T19:34:32.450Z,16.00
2022-09-30T19:37:02.579Z,16.00
2022-09-30T19:39:40.216Z,16.00
2022-09-30T19:42:16.906Z,16.00
2022-09-30T19:44:47.241Z,16.00
2022-09-30T19:47:14.539Z,16.00
2022-09-30T19:49:41.852Z,16.00
2022-09-30T19:52:19.763Z,15.90
2022-09-30T19:54:48.957Z,15.90
2022-09-30T19:57:16.242Z,16.00
2022-09-30T19:59:45.950Z,15.90
2022-09-30T20:02:13.182Z,16.00
2022-09-30T20:04:43.802Z,16.00
2022-09-30T20:07:16.131Z,16.00
2022-09-30T20:09:43.563Z,15.90
2022-09-30T20:12:13.688Z,15.90
2022-09-30T20:15:02.058Z,15.90
2022-09-30T20:17:31.882Z,15.90
2022-09-30T20:20:25.416Z,15.80
2022-09-30T20:22:53.207Z,15.80
2022-09-30T20:25:22.865Z,15.80
2022-09-30T20:27:52.823Z,15.80
2022-09-30T20:30:20.708Z,15.90
2022-09-30T20:32:47.947Z,15.90
2022-09-30T20:35:15.650Z,15.90
2022-09-30T20:37:42.928Z,15.90
2022-09-30T20:40:10.943Z,15.90
2022-09-30T20:42:39.999Z,16.00
2022-09-30T20:45:10.675Z,15.90
2022-09-30T20:47:39.777Z,15.90
2022-09-30T20:50:07.261Z,15.90
2022-09-30T20:52:37.322Z,15.90
2022-09-30T20:55:08.137Z,15.90
2022-09-30T20:57:35.579Z,16.00
2022-09-30T21:00:03.761Z,15.90
2022-09-30T21:02:30.980Z,15.90
2022-09-30T21:04:58.744Z,16.00
2022-09-30T21:07:28.571Z,15.90
2022-09-30T21:09:55.832Z,15.90
2022-09-30T21:12:23.696Z,15.90
2022-09-30T21:14:53.314Z,15.90
2022-09-30T21:17:25.178Z,15.80
2022-09-30T21:19:52.440Z,15.90
2022-09-30T21:22:20.157Z,15.80
2022-09-30T21:24:47.848Z,15.80
2022-09-30T21:27:15.059Z,15.80
2022-09-30T21:29:43.656Z,15.80
2022-09-30T21:32:10.952Z,15.90
2022-09-30T21:34:41.605Z,15.80
2022-09-30T21:37:09.290Z,15.80
2022-09-30T21:39:39.487Z,15.80
2022-09-30T21:42:07.439Z,15.70
2022-09-30T21:44:34.745Z,15.70
2022-09-30T21:47:04.634Z,15.60
2022-09-30T21:49:32.458Z,15.60
2022-09-30T21:52:00.127Z,15.50
2022-09-30T21:54:28.895Z,15.50
2022-09-30T21:56:56.560Z,15.50
2022-09-30T21:59:25.043Z,15.40
2022-09-30T22:01:52.721Z,15.40
2022-09-30T22:04:20.026Z,15.30
2022-09-30T22:06:49.729Z,15.30
2022-09-30T22:09:17.410Z,15.30
2022-09-30T22:11:45.102Z,15.20
2022-09-30T22:14:12.315Z,15.20
2022-09-30T22:16:40.117Z,15.10
2022-09-30T22:19:08.961Z,15.00
2022-09-30T22:21:37.739Z,15.00
2022-09-30T22:24:07.140Z,14.90
2022-09-30T22:26:37.828Z,14.80
2022-09-30T22:29:08.141Z,14.80
2022-09-30T22:31:39.068Z,14.80
2022-09-30T22:34:29.302Z,14.80
2022-09-30T22:37:17.337Z,14.80
2022-09-30T22:39:44.566Z,14.80
2022-09-30T22:42:16.400Z,14.70
2022-09-30T22:44:43.647Z,14.60
2022-09-30T22:47:11.293Z,14.60
2022-09-30T22:49:38.917Z,14.50
2022-09-30T22:52:06.697Z,14.30
2022-09-30T22:54:35.987Z,14.30
2022-09-30T22:57:03.717Z,14.30
2022-09-30T22:59:31.040Z,14.20
2022-09-30T23:02:05.509Z,14.20
2022-09-30T23:04:33.719Z,14.10
2022-09-30T23:07:00.939Z,14.00
2022-09-30T23:09:28.696Z,13.90
2022-09-30T23:11:57.026Z,13.90
2022-09-30T23:14:26.400Z,13.80
2022-09-30T23:16:55.776Z,13.90
2022-09-30T23:19:23.055Z,13.80
2022-09-30T23:21:54.965Z,13.90
2022-09-30T23:24:22.658Z,13.80
2022-09-30T23:26:51.964Z,13.80
2022-09-30T23:29:19.338Z,13.70
2022-09-30T23:31:46.627Z,13.70
2022-09-30T23:34:14.172Z,13.70
2022-09-30T23:36:43.466Z,13.60
2022-09-30T23:39:18.327Z,13.60
2022-09-30T23:41:47.821Z,13.60
2022-09-30T23:44:19.106Z,13.50
2022-09-30T23:47:06.416Z,13.40
2022-09-30T23:49:38.363Z,13.50
2022-09-30T23:52:11.894Z,13.40
2022-09-30T23:54:41.489Z,13.40
2022-09-30T23:57:09.653Z,13.40
2022-09-30T23:59:37.773Z,13.30
